Time;durP1;ratioP1;P1;durP2;ratioP2;P2;SDS_P1;SDS_P2;PMS_P1;PMS_P2;Temp;Humidity;BMP_temperature;BMP_pressure;BME280_temperature;BME280_humidity;BME280_pressure;Samples;Min_cycle;Max_cycle;Signal;HPM_P1;HPM_P2
2022/03/10 00:00:21;;;;;;;27.58;17.85;;;102.70;2227.20;;;;;;5066013;28;20393;-77
2022/03/10 00:02:47;;;;;;;26.05;16.95;;;102.70;2227.20;;;;;;5062466;28;20021;-79
2022/03/10 00:05:15;;;;;;;27.05;18.73;;;102.80;2227.20;;;;;;5055104;28;20029;-77
2022/03/10 00:07:41;;;;;;;27.38;17.55;;;102.70;2227.20;;;;;;5058370;28;20060;-80
2022/03/10 00:10:07;;;;;;;27.05;17.38;;;102.70;2227.20;;;;;;5058477;28;20112;-76
2022/03/10 00:12:34;;;;;;;27.33;17.25;;;102.70;2227.20;;;;;;5054544;28;20039;-77
2022/03/10 00:15:00;;;;;;;30.67;19.05;;;102.70;2227.20;;;;;;5070525;28;20481;-76
2022/03/10 00:17:26;;;;;;;31.58;18.92;;;102.70;2227.20;;;;;;5066703;28;20098;-76
2022/03/10 00:19:52;;;;;;;24.08;16.75;;;102.70;2227.20;;;;;;5050578;28;20499;-76
2022/03/10 00:22:17;;;;;;;26.92;16.98;;;102.60;2227.20;;;;;;5050053;28;20082;-77
2022/03/10 00:24:43;;;;;;;27.85;18.00;;;102.60;2227.20;;;;;;5052313;28;20497;-76
2022/03/10 00:27:09;;;;;;;31.48;18.85;;;102.50;2227.20;;;;;;5071024;28;20059;-76
2022/03/10 00:29:34;;;;;;;31.15;20.58;;;102.50;2227.20;;;;;;5069906;28;20119;-77
2022/03/10 00:32:01;;;;;;;33.13;20.65;;;102.50;2227.20;;;;;;5071833;28;20036;-76
2022/03/10 00:34:28;;;;;;;31.55;21.00;;;102.50;2227.20;;;;;;5069790;28;20021;-76
2022/03/10 00:36:54;;;;;;;34.80;21.65;;;102.50;2227.20;;;;;;5070361;28;20046;-76
2022/03/10 00:39:19;;;;;;;33.58;18.35;;;102.40;2227.20;;;;;;5069018;28;20025;-77
2022/03/10 00:41:45;;;;;;;31.75;19.33;;;102.40;2227.20;;;;;;5070193;28;20039;-76
2022/03/10 00:44:11;;;;;;;35.78;18.95;;;102.40;2227.20;;;;;;5071248;28;20013;-77
2022/03/10 00:46:36;;;;;;;43.13;23.77;;;102.40;2227.20;;;;;;5070416;28;20032;-76
2022/03/10 00:49:02;;;;;;;41.05;23.17;;;102.40;2227.20;;;;;;5069799;28;20032;-77
2022/03/10 00:51:28;;;;;;;34.53;19.73;;;77.70;2227.20;;;;;;5070311;28;20450;-76
2022/03/10 00:53:53;;;;;;;29.33;18.88;;;102.40;2227.20;;;;;;5069349;28;20548;-76
2022/03/10 00:56:19;;;;;;;31.17;19.75;;;102.40;2227.20;;;;;;5071405;28;20028;-77
2022/03/10 00:58:45;;;;;;;31.45;19.13;;;102.40;2227.20;;;;;;5069930;28;20473;-76
2022/03/10 01:01:11;;;;;;;31.20;18.75;;;102.40;2227.20;;;;;;5069682;28;20047;-76
2022/03/10 01:03:37;;;;;;;27.10;17.10;;;77.70;2227.20;;;;;;5053999;28;20104;-76
2022/03/10 01:06:02;;;;;;;29.08;18.63;;;77.70;2227.20;;;;;;5050981;28;20083;-76
2022/03/10 01:08:28;;;;;;;29.75;18.98;;;77.70;2227.20;;;;;;5049765;28;20029;-76
2022/03/10 01:10:54;;;;;;;33.63;20.20;;;77.70;2227.20;;;;;;5049736;28;20028;-76
2022/03/10 01:13:20;;;;;;;36.72;20.40;;;77.70;2227.20;;;;;;5051795;28;20041;-76
2022/03/10 01:15:47;;;;;;;32.53;20.42;;;77.70;2227.20;;;;;;5060517;28;20036;-76
2022/03/10 01:18:13;;;;;;;35.20;20.95;;;77.70;2227.20;;;;;;5051231;28;20027;-76
2022/03/10 01:20:39;;;;;;;38.65;23.30;;;77.60;2227.20;;;;;;5049557;28;20025;-76
2022/03/10 01:23:05;;;;;;;32.95;20.60;;;77.60;2227.20;;;;;;5049459;28;20036;-76
2022/03/10 01:25:31;;;;;;;33.67;21.35;;;77.70;2227.20;;;;;;5048902;28;20140;-75
2022/03/10 01:27:56;;;;;;;32.10;18.98;;;77.70;2227.20;;;;;;5049031;28;20033;-75
2022/03/10 01:30:22;;;;;;;30.83;19.70;;;77.70;2227.20;;;;;;5051191;28;20032;-75
2022/03/10 01:32:48;;;;;;;27.42;17.48;;;77.70;2227.20;;;;;;5064408;28;20024;-75
2022/03/10 01:35:16;;;;;;;29.38;17.60;;;77.70;2227.20;;;;;;5070948;28;20025;-75
2022/03/10 01:37:42;;;;;;;27.50;17.67;;;77.60;1945.60;;;;;;5056911;28;20031;-76
2022/03/10 01:40:10;;;;;;;28.33;18.50;;;77.70;1971.20;;;;;;5049974;28;20025;-75
2022/03/10 01:42:37;;;;;;;31.35;19.45;;;77.70;1945.60;;;;;;5049159;28;20082;-76
2022/03/10 01:45:03;;;;;;;33.33;18.63;;;77.60;1971.20;;;;;;5050961;28;20033;-76
2022/03/10 01:47:29;;;;;;;30.42;18.08;;;77.70;1971.20;;;;;;5050394;28;20091;-75
2022/03/10 01:49:55;;;;;;;27.08;16.95;;;77.70;1971.20;;;;;;5050374;28;20366;-75
2022/03/10 01:52:21;;;;;;;26.10;16.92;;;77.70;1996.80;;;;;;5053104;28;20037;-75
2022/03/10 01:54:47;;;;;;;26.50;16.48;;;102.40;2022.40;;;;;;5072196;28;20392;-75
2022/03/10 01:57:14;;;;;;;28.85;17.73;;;77.70;1996.80;;;;;;5055327;28;20025;-76
2022/03/10 01:59:41;;;;;;;26.48;16.48;;;77.70;2048.00;;;;;;5105439;28;20024;-76
2022/03/10 02:02:07;;;;;;;25.67;17.02;;;77.70;2048.00;;;;;;5074213;28;20401;-76
2022/03/10 02:04:33;;;;;;;29.17;17.23;;;77.70;2022.40;;;;;;5072508;28;20031;-76
2022/03/10 02:07:03;;;;;;;32.40;17.75;;;77.70;2022.40;;;;;;5074050;28;20024;-77
2022/03/10 02:12:13;;;;;;;28.95;17.25;;;77.70;2022.40;;;;;;5066818;28;20516;-76
2022/03/10 02:17:25;;;;;;;24.60;15.98;;;77.70;1996.80;;;;;;5072735;28;20093;-76
2022/03/10 02:19:53;;;;;;;26.90;17.80;;;77.70;1996.80;;;;;;5071308;28;20473;-76
2022/03/10 02:22:21;;;;;;;26.38;16.52;;;77.70;1996.80;;;;;;5072417;28;20392;-76
2022/03/10 02:24:47;;;;;;;26.90;16.77;;;77.70;2048.00;;;;;;5071689;28;20048;-77
2022/03/10 02:27:24;;;;;;;24.48;16.00;;;77.70;1996.80;;;;;;5073978;28;20485;-76
2022/03/10 02:29:53;;;;;;;29.80;17.73;;;77.70;2022.40;;;;;;5072024;28;20032;-77
2022/03/10 02:32:20;;;;;;;29.77;17.85;;;77.70;1996.80;;;;;;5072486;28;20029;-76
2022/03/10 02:34:47;;;;;;;31.25;19.30;;;77.70;1996.80;;;;;;5073300;28;20485;-76
2022/03/10 02:37:14;;;;;;;31.48;18.23;;;77.60;1971.20;;;;;;5054910;28;20028;-76
2022/03/10 02:39:41;;;;;;;33.10;18.92;;;77.60;1996.80;;;;;;5070088;28;20048;-76
2022/03/10 02:42:07;;;;;;;34.90;19.25;;;77.60;1971.20;;;;;;5065739;28;20020;-76
2022/03/10 02:44:33;;;;;;;32.97;20.42;;;77.60;1945.60;;;;;;5071904;28;20492;-76
2022/03/10 02:46:59;;;;;;;34.70;20.75;;;77.70;1920.00;;;;;;5071189;28;20035;-76
2022/03/10 02:49:25;;;;;;;34.80;21.52;;;77.60;1920.00;;;;;;5063483;28;20025;-76
2022/03/10 02:51:51;;;;;;;35.67;22.83;;;77.60;1971.20;;;;;;5059095;28;20435;-77
2022/03/10 02:54:17;;;;;;;38.20;22.67;;;77.60;1971.20;;;;;;5061310;28;20033;-76
2022/03/10 02:56:43;;;;;;;37.88;23.00;;;77.60;1945.60;;;;;;5057432;28;20047;-76
2022/03/10 02:59:10;;;;;;;42.22;25.15;;;77.60;1920.00;;;;;;5058681;28;20039;-77
2022/03/10 03:01:36;;;;;;;45.70;25.73;;;77.60;1920.00;;;;;;5063701;28;20039;-77
2022/03/10 03:04:03;;;;;;;47.08;25.30;;;77.60;1971.20;;;;;;5052382;28;20492;-76
2022/03/10 03:06:28;;;;;;;40.97;24.52;;;77.60;1945.60;;;;;;5051279;28;20037;-76
2022/03/10 03:08:54;;;;;;;38.20;23.77;;;77.60;2022.40;;;;;;5051330;28;20041;-78
2022/03/10 03:11:20;;;;;;;38.40;22.60;;;77.60;1996.80;;;;;;5051804;28;20037;-78
2022/03/10 03:13:45;;;;;;;36.35;23.58;;;77.60;2022.40;;;;;;5051054;28;20029;-77
2022/03/10 03:16:11;;;;;;;44.75;24.50;;;77.60;2048.00;;;;;;5052928;28;20025;-77
2022/03/10 03:18:37;;;;;;;39.38;25.20;;;77.60;2048.00;;;;;;5052497;28;20024;-77
2022/03/10 03:21:03;;;;;;;40.25;23.77;;;77.70;2048.00;;;;;;5058649;28;20067;-76
2022/03/10 03:23:29;;;;;;;42.00;25.02;;;77.70;2048.00;;;;;;5065043;28;20058;-76
2022/03/10 03:25:54;;;;;;;48.45;26.20;;;77.60;2022.40;;;;;;5056545;28;20123;-76
2022/03/10 03:28:23;;;;;;;44.38;26.98;;;77.50;2022.40;;;;;;5071542;28;20181;-76
2022/03/10 03:30:49;;;;;;;45.05;24.75;;;77.50;2022.40;;;;;;5072218;28;20024;-76
2022/03/10 03:33:15;;;;;;;42.15;25.73;;;77.50;2022.40;;;;;;5071336;28;20035;-75
2022/03/10 03:35:44;;;;;;;44.95;24.80;;;77.50;2022.40;;;;;;5070626;28;20039;-76
2022/03/10 03:38:11;;;;;;;42.53;25.48;;;77.60;1971.20;;;;;;5072425;28;20025;-76
2022/03/10 03:40:37;;;;;;;42.35;26.60;;;77.50;1971.20;;;;;;5066981;28;20024;-74
2022/03/10 03:43:03;;;;;;;42.38;25.27;;;77.50;1971.20;;;;;;5063743;28;20103;-77
2022/03/10 03:45:29;;;;;;;38.20;23.13;;;77.50;1996.80;;;;;;5071699;28;20549;-75
2022/03/10 03:47:55;;;;;;;42.13;25.88;;;77.50;1996.80;;;;;;5071048;28;20035;-76
2022/03/10 03:50:21;;;;;;;44.50;25.92;;;77.40;2022.40;;;;;;5052763;28;20032;-76
2022/03/10 03:52:47;;;;;;;39.75;24.55;;;77.40;2048.00;;;;;;5051668;28;20037;-75
2022/03/10 03:55:13;;;;;;;44.92;25.88;;;77.40;2073.60;;;;;;5051087;28;20033;-75
2022/03/10 03:57:40;;;;;;;39.47;25.63;;;77.40;2022.40;;;;;;5050450;28;20071;-75
2022/03/10 04:00:08;;;;;;;42.40;26.75;;;77.40;2022.40;;;;;;5051006;28;20028;-76
2022/03/10 04:02:35;;;;;;;43.38;28.20;;;77.40;1971.20;;;;;;5050348;28;20040;-74
2022/03/10 04:05:01;;;;;;;41.80;25.63;;;77.40;1945.60;;;;;;5052054;28;20087;-75
2022/03/10 04:07:27;;;;;;;41.38;24.67;;;77.40;1920.00;;;;;;5050206;28;20032;-75
2022/03/10 04:09:52;;;;;;;43.17;25.33;;;77.50;2227.20;;;;;;5057384;28;20102;-74
2022/03/10 04:12:18;;;;;;;38.83;24.77;;;77.40;2227.20;;;;;;5050291;28;20060;-75
2022/03/10 04:14:44;;;;;;;42.95;24.02;;;77.40;2227.20;;;;;;5051292;28;20469;-74
2022/03/10 04:17:09;;;;;;;39.35;22.63;;;77.40;2227.20;;;;;;5051238;28;20033;-75
2022/03/10 04:19:35;;;;;;;35.13;21.77;;;77.40;2227.20;;;;;;5051075;28;20082;-74
2022/03/10 04:22:01;;;;;;;42.00;23.15;;;77.40;2227.20;;;;;;5071591;28;20109;-74
2022/03/10 04:24:26;;;;;;;38.58;22.92;;;77.40;2227.20;;;;;;5070593;28;20495;-74
2022/03/10 04:26:52;;;;;;;33.38;21.73;;;77.40;2227.20;;;;;;5063359;28;20381;-75
2022/03/10 04:29:18;;;;;;;37.83;22.20;;;77.40;2227.20;;;;;;5070968;28;20027;-74
2022/03/10 04:31:44;;;;;;;32.05;20.10;;;77.40;2227.20;;;;;;5060408;28;20059;-75
2022/03/10 04:34:10;;;;;;;35.75;19.13;;;77.40;2227.20;;;;;;5049608;28;20043;-75
2022/03/10 04:36:36;;;;;;;32.00;18.55;;;77.30;2227.20;;;;;;5062612;28;20024;-75
2022/03/10 04:39:03;;;;;;;33.50;18.85;;;77.30;2227.20;;;;;;5069727;28;20025;-75
2022/03/10 04:41:29;;;;;;;29.52;16.83;;;77.30;2227.20;;;;;;5071568;28;20021;-74
2022/03/10 04:43:55;;;;;;;32.85;18.20;;;77.30;2227.20;;;;;;5064371;28;20515;-75
2022/03/10 04:46:21;;;;;;;28.00;17.58;;;77.20;2227.20;;;;;;5054776;28;20036;-74
2022/03/10 04:48:46;;;;;;;23.88;15.02;;;77.20;2227.20;;;;;;5066485;28;20029;-75
2022/03/10 04:51:12;;;;;;;26.95;17.40;;;77.20;2227.20;;;;;;5048706;28;20048;-75
2022/03/10 04:53:38;;;;;;;25.60;16.25;;;77.20;2227.20;;;;;;5050142;28;20033;-74
2022/03/10 04:56:04;;;;;;;27.30;16.02;;;77.20;2227.20;;;;;;5050823;28;20087;-75
2022/03/10 04:58:30;;;;;;;25.73;16.48;;;77.20;2227.20;;;;;;5067265;28;20063;-74
2022/03/10 05:00:55;;;;;;;21.98;13.70;;;77.20;2227.20;;;;;;5063416;28;20049;-74
2022/03/10 05:03:21;;;;;;;22.40;13.95;;;77.20;2227.20;;;;;;5058458;28;20039;-74
2022/03/10 05:05:47;;;;;;;25.35;15.35;;;77.10;2227.20;;;;;;5068998;28;20119;-74
2022/03/10 05:08:13;;;;;;;23.13;14.70;;;77.10;2227.20;;;;;;5053186;28;20029;-74
2022/03/10 05:10:39;;;;;;;23.30;14.65;;;77.10;2227.20;;;;;;5062789;28;20024;-74
2022/03/10 05:13:05;;;;;;;23.13;13.43;;;77.00;2227.20;;;;;;5065424;28;20385;-77
2022/03/10 05:15:31;;;;;;;22.23;14.02;;;77.10;2227.20;;;;;;5069996;28;20067;-76
2022/03/10 05:18:02;;;;;;;22.13;13.93;;;77.10;2227.20;;;;;;5070192;28;20032;-76
2022/03/10 05:20:28;;;;;;;21.05;12.13;;;77.00;2227.20;;;;;;5049550;28;20465;-78
2022/03/10 05:22:57;;;;;;;18.23;11.43;;;76.90;2227.20;;;;;;5050396;28;20381;-76
2022/03/10 05:25:25;;;;;;;23.13;12.70;;;76.90;2227.20;;;;;;5064788;28;20060;-77
2022/03/10 05:27:52;;;;;;;18.50;11.63;;;76.80;2227.20;;;;;;5074703;28;20478;-76
2022/03/10 05:30:19;;;;;;;21.02;11.95;;;52.10;2227.20;;;;;;5073474;28;20051;-78
2022/03/10 05:32:45;;;;;;;18.20;12.27;;;52.10;2227.20;;;;;;5054551;28;20036;-78
2022/03/10 05:35:16;;;;;;;18.42;12.10;;;52.10;2227.20;;;;;;5053279;28;20436;-79
2022/03/10 05:37:43;;;;;;;20.15;11.82;;;52.00;2227.20;;;;;;5055471;28;20017;-78
2022/03/10 05:40:12;;;;;;;16.95;10.85;;;51.90;2227.20;;;;;;5072349;28;20047;-78
2022/03/10 05:42:39;;;;;;;16.67;11.15;;;51.80;2227.20;;;;;;5063917;28;20441;-79
2022/03/10 05:45:06;;;;;;;18.17;11.98;;;51.70;2227.20;;;;;;5068848;28;20103;-78
2022/03/10 05:47:32;;;;;;;18.73;11.70;;;51.70;2227.20;;;;;;5059728;28;20021;-80
2022/03/10 05:49:58;;;;;;;18.30;12.32;;;51.70;2227.20;;;;;;5053149;28;20025;-78
2022/03/10 05:52:23;;;;;;;20.40;12.65;;;51.60;2227.20;;;;;;5070873;28;20021;-78
2022/03/10 05:54:49;;;;;;;15.40;11.60;;;51.60;2227.20;;;;;;5071765;28;20029;-77
2022/03/10 05:57:15;;;;;;;18.95;10.55;;;51.60;2227.20;;;;;;5053023;28;20049;-76
2022/03/10 05:59:41;;;;;;;18.75;10.32;;;51.60;2227.20;;;;;;5054526;28;20033;-76
2022/03/10 06:02:06;;;;;;;15.20;10.20;;;51.60;2227.20;;;;;;5052631;28;20482;-76
2022/03/10 06:04:32;;;;;;;15.10;9.30;;;51.60;2227.20;;;;;;5053079;28;20056;-77
2022/03/10 06:06:58;;;;;;;18.08;10.23;;;51.60;2227.20;;;;;;5053669;28;20111;-76
2022/03/10 06:09:23;;;;;;;12.10;8.68;;;51.60;2227.20;;;;;;5066976;28;20024;-75
2022/03/10 06:11:49;;;;;;;17.08;10.13;;;51.60;2227.20;;;;;;5073821;28;20127;-78
2022/03/10 06:14:15;;;;;;;16.92;9.02;;;51.70;2227.20;;;;;;5066704;28;20078;-79
2022/03/10 06:16:41;;;;;;;13.80;9.05;;;51.70;2227.20;;;;;;5059734;28;20032;-76
2022/03/10 06:19:08;;;;;;;16.77;11.07;;;51.70;2227.20;;;;;;5062674;28;20500;-80
2022/03/10 06:21:34;;;;;;;18.00;9.85;;;51.70;2227.20;;;;;;5060278;28;20021;-77
2022/03/10 06:24:00;;;;;;;14.80;9.60;;;51.70;2227.20;;;;;;5062825;28;20408;-78
2022/03/10 06:26:26;;;;;;;14.15;8.73;;;51.70;2227.20;;;;;;5063100;28;20037;-76
2022/03/10 06:28:52;;;;;;;13.70;8.27;;;51.70;2227.20;;;;;;5061443;28;20108;-77
2022/03/10 06:31:19;;;;;;;13.25;8.38;;;51.80;2227.20;;;;;;5061172;28;20080;-77
2022/03/10 06:33:44;;;;;;;17.52;9.10;;;51.80;2227.20;;;;;;5062231;28;20514;-80
2022/03/10 06:36:11;;;;;;;19.58;10.20;;;51.80;2227.20;;;;;;5060046;28;20033;-78
2022/03/10 06:38:37;;;;;;;13.68;8.52;;;51.80;2227.20;;;;;;5059491;28;20432;-78
2022/03/10 06:41:03;;;;;;;14.05;8.90;;;51.80;2227.20;;;;;;5060152;28;20096;-77
2022/03/10 06:43:28;;;;;;;17.10;9.05;;;51.80;2227.20;;;;;;5091213;28;20110;-79
2022/03/10 06:45:54;;;;;;;13.45;8.02;;;51.80;2227.20;;;;;;5062183;28;20047;-78
2022/03/10 06:48:20;;;;;;;14.13;9.88;;;51.80;2227.20;;;;;;5064438;28;20036;-78
2022/03/10 06:50:46;;;;;;;19.42;10.63;;;51.90;2227.20;;;;;;5059228;28;20048;-77
2022/03/10 06:53:13;;;;;;;13.95;8.18;;;51.90;2227.20;;;;;;5052337;28;20028;-77
2022/03/10 06:55:39;;;;;;;13.52;8.63;;;51.90;2227.20;;;;;;5064211;28;20043;-76
2022/03/10 06:58:05;;;;;;;15.90;9.88;;;52.00;2227.20;;;;;;5061324;28;20035;-77
2022/03/10 07:00:32;;;;;;;14.68;7.90;;;52.10;2227.20;;;;;;5060956;28;20041;-76
2022/03/10 07:02:58;;;;;;;17.23;10.65;;;76.80;2227.20;;;;;;5068196;28;20398;-77
2022/03/10 07:05:23;;;;;;;14.45;8.02;;;76.80;2227.20;;;;;;5057646;28;20032;-77
2022/03/10 07:07:49;;;;;;;13.23;8.93;;;52.00;2227.20;;;;;;5052973;28;20037;-77
2022/03/10 07:10:15;;;;;;;12.20;8.23;;;52.10;2227.20;;;;;;5063963;28;20028;-77
2022/03/10 07:12:42;;;;;;;15.48;9.85;;;52.00;2227.20;;;;;;5061710;28;20039;-78
2022/03/10 07:15:12;;;;;;;15.85;8.77;;;52.00;2227.20;;;;;;5061220;28;20470;-80
2022/03/10 07:17:39;;;;;;;13.23;9.27;;;52.10;2227.20;;;;;;5058023;28;20837;-78
2022/03/10 07:20:05;;;;;;;17.42;8.95;;;52.10;2227.20;;;;;;5063792;28;20040;-81
2022/03/10 07:22:31;;;;;;;14.98;8.02;;;76.80;2227.20;;;;;;5056350;28;20098;-79
2022/03/10 07:24:57;;;;;;;11.30;7.82;;;76.80;2227.20;;;;;;5059911;28;20044;-78
2022/03/10 07:27:23;;;;;;;21.40;9.05;;;76.80;2227.20;;;;;;5057827;28;20059;-79
2022/03/10 07:29:49;;;;;;;15.70;9.07;;;77.00;2227.20;;;;;;5063408;28;20024;-79
2022/03/10 07:32:15;;;;;;;19.55;8.73;;;77.10;2227.20;;;;;;5056225;28;20028;-78
2022/03/10 07:34:41;;;;;;;13.90;9.10;;;77.20;2227.20;;;;;;5059519;28;20067;-79
2022/03/10 07:37:07;;;;;;;19.15;9.52;;;77.30;2227.20;;;;;;5066065;28;20428;-79
2022/03/10 07:39:33;;;;;;;14.82;9.52;;;77.30;2227.20;;;;;;5061017;28;20460;-78
2022/03/10 07:42:00;;;;;;;16.05;8.90;;;77.50;2227.20;;;;;;5063596;28;20469;-80
2022/03/10 07:44:26;;;;;;;32.45;13.13;;;77.50;2227.20;;;;;;5061831;28;20358;-79
2022/03/10 07:46:52;;;;;;;19.95;9.57;;;77.60;2227.20;;;;;;5058572;28;20024;-80
2022/03/10 07:49:18;;;;;;;14.75;9.55;;;77.60;2227.20;;;;;;5061979;28;20032;-79
2022/03/10 07:51:44;;;;;;;13.63;8.05;;;77.60;2227.20;;;;;;5067744;28;20020;-80
2022/03/10 07:54:11;;;;;;;14.65;9.80;;;77.60;2227.20;;;;;;5058441;28;20060;-80
2022/03/10 07:56:37;;;;;;;14.88;8.75;;;102.40;2227.20;;;;;;5059494;28;20391;-79
2022/03/10 07:59:03;;;;;;;20.80;9.77;;;102.40;2227.20;;;;;;5064706;28;20031;-79
2022/03/10 08:01:28;;;;;;;17.27;10.95;;;102.50;2227.20;;;;;;5058116;28;20025;-79
2022/03/10 08:03:54;;;;;;;18.70;10.38;;;102.50;2227.20;;;;;;5055566;28;20370;-79
2022/03/10 08:06:21;;;;;;;18.58;10.73;;;102.90;2227.20;;;;;;5055469;28;20056;-79
2022/03/10 08:08:47;;;;;;;19.65;10.10;;;103.10;2227.20;;;;;;5061438;28;20029;-80
2022/03/10 08:11:13;;;;;;;13.27;8.77;;;102.80;2227.20;;;;;;5060565;28;20085;-79
2022/03/10 08:13:38;;;;;;;19.80;10.93;;;102.80;2227.20;;;;;;5060068;28;20101;-78
2022/03/10 08:16:04;;;;;;;22.23;10.32;;;103.10;2227.20;;;;;;5057557;28;20801;-78
2022/03/10 08:18:30;;;;;;;15.98;9.23;;;103.10;2227.20;;;;;;5057041;28;20036;-79
2022/03/10 08:20:57;;;;;;;29.77;11.82;;;103.10;2227.20;;;;;;5058408;28;20051;-79
2022/03/10 08:23:23;;;;;;;19.98;10.13;;;128.00;2252.80;;;;;;5056464;28;20108;-79
2022/03/10 08:25:49;;;;;;;31.52;11.57;;;103.30;2227.20;;;;;;5054130;28;20160;-80
2022/03/10 08:28:16;;;;;;;15.98;9.73;;;103.30;2227.20;;;;;;5054884;28;20052;-81
2022/03/10 08:30:42;;;;;;;16.15;9.38;;;128.20;2252.80;;;;;;5054332;28;20024;-81
2022/03/10 08:33:08;;;;;;;17.65;9.77;;;128.10;2252.80;;;;;;5056854;28;20036;-83
2022/03/10 08:35:34;;;;;;;18.20;10.77;;;128.20;2252.80;;;;;;5060988;28;20035;-82
2022/03/10 08:38:00;;;;;;;18.38;9.00;;;128.50;2252.80;;;;;;5061993;28;20060;-80
2022/03/10 08:40:26;;;;;;;14.00;9.13;;;128.30;2252.80;;;;;;5058149;28;20060;-80
2022/03/10 08:42:52;;;;;;;18.90;11.13;;;128.40;2252.80;;;;;;5059038;28;20036;-81
2022/03/10 08:45:19;;;;;;;15.48;10.75;;;128.50;2252.80;;;;;;5057154;28;20029;-80
2022/03/10 08:47:45;;;;;;;25.05;12.43;;;153.60;2252.80;;;;;;5056438;28;20021;-81
2022/03/10 08:50:11;;;;;;;27.77;12.25;;;154.00;2252.80;;;;;;5058898;28;20056;-80
2022/03/10 08:52:38;;;;;;;38.05;13.43;;;153.90;2252.80;;;;;;5100883;28;20024;-80
2022/03/10 08:55:05;;;;;;;17.55;10.52;;;154.10;2252.80;;;;;;5056902;28;20025;-79
2022/03/10 08:57:32;;;;;;;21.65;12.35;;;154.10;2252.80;;;;;;5097804;28;20396;-80
2022/03/10 08:59:58;;;;;;;17.02;11.43;;;179.30;2252.80;;;;;;5061440;28;20096;-80
2022/03/10 09:02:24;;;;;;;15.35;10.05;;;179.40;2252.80;;;;;;5059560;28;20113;-80
2022/03/10 09:04:50;;;;;;;20.05;12.75;;;179.30;2252.80;;;;;;5061433;28;20469;-81
2022/03/10 09:07:16;;;;;;;16.48;10.48;;;179.50;2252.80;;;;;;5065672;28;20025;-81
2022/03/10 09:09:42;;;;;;;17.08;10.50;;;179.70;2252.80;;;;;;5070576;28;20037;-80
2022/03/10 09:12:08;;;;;;;16.73;11.35;;;179.80;2252.80;;;;;;5064794;28;20082;-79
2022/03/10 09:14:34;;;;;;;16.30;9.35;;;180.00;2252.80;;;;;;5064257;28;20028;-81
2022/03/10 09:17:00;;;;;;;20.27;11.57;;;179.90;2252.80;;;;;;5054739;28;20040;-81
2022/03/10 09:19:25;;;;;;;20.75;11.73;;;179.90;2252.80;;;;;;5061711;28;20043;-81
2022/03/10 09:21:51;;;;;;;18.50;11.32;;;205.30;2252.80;;;;;;5061981;28;20028;-82
2022/03/10 09:24:17;;;;;;;18.17;10.77;;;205.60;2252.80;;;;;;5065456;28;20052;-80
2022/03/10 09:26:43;;;;;;;16.98;10.13;;;230.40;2252.80;;;;;;5067919;28;20037;-81
2022/03/10 09:29:09;;;;;;;22.52;12.95;;;205.60;2252.80;;;;;;5061162;28;20137;-81
2022/03/10 09:31:35;;;;;;;31.63;15.40;;;230.40;2252.80;;;;;;5068332;28;20469;-81
2022/03/10 09:34:01;;;;;;;19.38;10.50;;;205.70;2252.80;;;;;;5061597;28;20079;-80
2022/03/10 09:36:26;;;;;;;17.45;11.65;;;230.60;2252.80;;;;;;5064962;28;20024;-79
2022/03/10 09:38:55;;;;;;;21.30;10.85;;;230.70;2252.80;;;;;;5094637;28;20075;-82
2022/03/10 09:41:21;;;;;;;22.90;13.05;;;205.40;2252.80;;;;;;5063144;28;20025;-81
2022/03/10 09:43:48;;;;;;;20.48;12.13;;;204.80;2252.80;;;;;;5061087;28;20438;-78
2022/03/10 09:46:14;;;;;;;19.10;12.32;;;205.20;2252.80;;;;;;5063870;28;20033;-82
2022/03/10 09:48:40;;;;;;;21.75;13.02;;;205.20;2252.80;;;;;;5060191;28;20040;-82
2022/03/10 09:51:07;;;;;;;26.10;12.20;;;205.10;2252.80;;;;;;5062022;28;20120;-78
2022/03/10 09:53:34;;;;;;;23.42;12.25;;;205.30;2252.80;;;;;;5064082;28;20166;-79
2022/03/10 09:56:02;;;;;;;22.42;15.60;;;204.90;2252.80;;;;;;5068468;28;20130;-80
2022/03/10 09:58:28;;;;;;;22.17;13.25;;;204.90;2252.80;;;;;;5063546;28;20543;-84
2022/03/10 10:01:06;;;;;;;21.58;12.43;;;205.20;2252.80;;;;;;5065558;28;20147;-81
2022/03/10 10:03:33;;;;;;;22.80;13.35;;;205.30;2252.80;;;;;;5058632;28;20397;-82
2022/03/10 10:06:00;;;;;;;19.33;13.48;;;205.10;2252.80;;;;;;5096472;28;20037;-82
2022/03/10 10:08:27;;;;;;;21.80;13.07;;;205.00;2252.80;;;;;;5062000;28;20032;-81
2022/03/10 10:10:56;;;;;;;20.45;13.70;;;180.10;2252.80;;;;;;5068060;28;20036;-81
2022/03/10 10:13:29;;;;;;;17.85;12.32;;;180.10;2252.80;;;;;;5059751;28;20081;-83
2022/03/10 10:16:06;;;;;;;19.20;13.00;;;179.90;2252.80;;;;;;5100908;28;20036;-83
2022/03/10 10:18:34;;;;;;;27.90;15.68;;;179.90;2252.80;;;;;;5066249;28;20024;-83
2022/03/10 10:21:00;;;;;;;28.45;15.93;;;205.50;2252.80;;;;;;5094312;28;20144;-83
2022/03/10 10:23:32;;;;;;;27.10;16.42;;;230.80;2252.80;;;;;;5055918;28;20035;-86
2022/03/10 10:26:18;;;;;;;25.33;17.63;;;230.40;2252.80;;;;;;5059615;28;20044;-84
2022/03/10 10:29:04;;;;;;;23.70;15.75;;;230.60;2252.80;;;;;;5060377;28;20112;-84
2022/03/10 10:31:30;;;;;;;18.50;13.97;;;256.00;2252.80;;;;;;5064328;28;20115;-84
2022/03/10 10:34:01;;;;;;;24.35;15.32;;;231.10;2252.80;;;;;;5063068;28;20059;-84
2022/03/10 10:36:30;;;;;;;22.85;16.40;;;230.60;2252.80;;;;;;5067840;28;20086;-84
2022/03/10 10:39:07;;;;;;;26.92;16.88;;;205.40;2252.80;;;;;;5104888;28;20048;-84
2022/03/10 10:41:33;;;;;;;23.13;16.42;;;204.90;2252.80;;;;;;5064696;28;20032;-83
2022/03/10 10:44:04;;;;;;;21.08;14.35;;;205.40;2252.80;;;;;;5063257;28;20538;-82
2022/03/10 10:46:42;;;;;;;25.35;14.82;;;256.00;2252.80;;;;;;5072188;28;20036;-83
2022/03/10 10:49:10;;;;;;;23.42;17.40;;;231.10;2252.80;;;;;;5073231;28;20050;-83
2022/03/10 10:51:38;;;;;;;26.85;17.48;;;230.80;2252.80;;;;;;5072192;28;20024;-83
2022/03/10 10:54:10;;;;;;;24.73;15.38;;;230.80;2252.80;;;;;;5073199;28;20412;-83
2022/03/10 10:57:09;;;;;;;25.48;17.63;;;230.60;2252.80;;;;;;5062869;28;20119;-81
2022/03/10 10:59:54;;;;;;;25.50;15.55;;;230.60;2252.80;;;;;;5064197;28;20183;-81
2022/03/10 11:02:27;;;;;;;25.40;16.20;;;230.70;2252.80;;;;;;5071076;28;20021;-82
2022/03/10 11:04:54;;;;;;;28.65;18.05;;;230.60;2252.80;;;;;;5050783;28;20027;-81
2022/03/10 11:07:21;;;;;;;27.23;17.50;;;205.70;2252.80;;;;;;5067262;28;20027;-82
2022/03/10 11:09:49;;;;;;;27.35;16.90;;;205.50;2252.80;;;;;;5051106;28;20025;-82
2022/03/10 11:12:16;;;;;;;20.67;13.77;;;205.30;2252.80;;;;;;5063995;28;20515;-83
2022/03/10 11:14:44;;;;;;;21.35;13.50;;;205.30;2252.80;;;;;;5071792;28;20432;-82
2022/03/10 11:17:12;;;;;;;18.50;11.88;;;205.20;2252.80;;;;;;5069978;28;20031;-81
2022/03/10 11:19:44;;;;;;;15.07;11.88;;;204.90;2252.80;;;;;;5052624;28;20029;-77
2022/03/10 11:22:30;;;;;;;28.35;14.98;;;204.90;2252.80;;;;;;5069400;28;20108;-77
2022/03/10 11:25:33;;;;;;;24.42;12.95;;;205.00;2252.80;;;;;;5050232;28;20390;-78
2022/03/10 11:31:14;;;;;;;22.33;14.23;;;205.00;2252.80;;;;;;5051761;28;20159;-82
2022/03/10 11:34:02;;;;;;;27.10;16.45;;;205.00;2252.80;;;;;;5060007;28;20115;-81
2022/03/10 11:36:32;;;;;;;21.15;15.23;;;230.40;2252.80;;;;;;5064674;28;20031;-82
2022/03/10 11:38:59;;;;;;;22.67;16.65;;;256.90;2048.00;;;;;;5067483;28;20025;-81
2022/03/10 11:41:40;;;;;;;23.88;15.23;;;307.60;1894.40;;;;;;5058444;28;20021;-82
2022/03/10 11:44:07;;;;;;;21.70;14.23;;;333.20;1792.00;;;;;;5061242;28;20075;-81
2022/03/10 11:46:33;;;;;;;20.75;15.00;;;333.40;1638.40;;;;;;5060877;28;20029;-81
2022/03/10 11:49:11;;;;;;;18.85;13.90;;;333.40;1638.40;;;;;;5059780;28;20492;-82
2022/03/10 11:55:23;;;;;;;24.40;15.85;;;358.70;1536.00;;;;;;5058129;28;20032;-83
2022/03/10 11:58:26;;;;;;;21.27;14.25;;;358.80;1484.80;;;;;;5058553;28;20028;-84
2022/03/10 12:00:59;;;;;;;25.73;14.65;;;359.10;1459.20;;;;;;5057790;28;20939;-84
2022/03/10 12:03:38;;;;;;;21.33;14.13;;;333.20;1536.00;;;;;;5065868;28;20029;-82
2022/03/10 12:06:17;;;;;;;16.17;12.27;;;282.50;1587.20;;;;;;5052310;28;20021;-82
2022/03/10 12:09:01;;;;;;;18.25;13.13;;;256.90;1689.60;;;;;;5051650;28;20029;-84
2022/03/10 12:11:47;;;;;;;20.20;12.75;;;256.50;1894.40;;;;;;5064201;28;20047;-83
2022/03/10 12:14:27;;;;;;;14.73;10.88;;;231.30;1996.80;;;;;;5059899;28;20047;-86
2022/03/10 12:16:53;;;;;;;19.85;14.68;;;230.90;2150.40;;;;;;5066178;28;20048;-82
2022/03/10 12:19:19;;;;;;;24.17;14.90;;;230.70;2150.40;;;;;;5062534;28;20662;-84